Аэропорт: Гомель. Гомель

ICAO: UMGG

METAR:
2020-10-19 22:00:00
UMGG 192200Z 24006MPS CAVOK 03/00 Q1019 R28/D NOSIG
METAR:
2020-10-19 16:57:00
TAF UMGG 191657Z 1918/2018 25007MPS 9999 BKN015 TEMPO 1921/2005 2000 BR BKN005 TEMPO 2005/2018 28009G14MPS